createdAt,value
2022-12-15T00:02:21.651Z,43.30
2022-12-15T00:05:07.511Z,41.85
2022-12-15T00:07:53.545Z,42.63
2022-12-15T00:10:39.267Z,44.03
2022-12-15T00:13:32.354Z,43.90
2022-12-15T00:16:18.683Z,43.95
2022-12-15T00:19:04.621Z,43.80
2022-12-15T00:21:50.342Z,46.58
2022-12-15T00:24:35.837Z,52.03
2022-12-15T00:27:21.812Z,53.15
2022-12-15T00:30:07.928Z,50.28
2022-12-15T00:32:53.673Z,50.20
2022-12-15T00:35:39.373Z,47.20
2022-12-15T00:38:26.790Z,46.90
2022-12-15T00:40:59.088Z,47.63
2022-12-15T00:43:31.881Z,47.15
2022-12-15T00:46:18.293Z,46.40
2022-12-15T00:48:46.112Z,48.78
2022-12-15T00:51:14.538Z,49.30
2022-12-15T00:54:00.549Z,48.38
2022-12-15T00:56:46.560Z,49.47
2022-12-15T00:59:32.680Z,49.90
2022-12-15T01:02:19.324Z,48.30
2022-12-15T01:05:05.204Z,49.58
2022-12-15T01:07:51.289Z,51.13
2022-12-15T01:10:38.011Z,48.75
2022-12-15T01:13:24.398Z,51.33
2022-12-15T01:16:09.920Z,50.20
2022-12-15T01:18:55.541Z,50.38
2022-12-15T01:21:25.051Z,53.47
2022-12-15T01:23:53.333Z,50.38
2022-12-15T01:26:20.630Z,54.97
2022-12-15T01:28:47.714Z,49.80
2022-12-15T01:31:14.802Z,52.33
2022-12-15T01:33:43.742Z,51.17
2022-12-15T01:36:11.253Z,51.00
2022-12-15T01:38:38.337Z,54.70
2022-12-15T01:41:09.436Z,56.42
2022-12-15T01:43:39.498Z,50.33
2022-12-15T01:46:16.032Z,52.95
2022-12-15T01:48:56.957Z,53.15
2022-12-15T01:51:42.570Z,51.60
2022-12-15T01:54:25.404Z,49.72
2022-12-15T01:56:56.808Z,49.88
2022-12-15T01:59:31.055Z,52.40
2022-12-15T02:01:58.391Z,51.70
2022-12-15T02:04:25.841Z,50.97
2022-12-15T02:06:53.538Z,51.10
2022-12-15T02:09:22.542Z,54.63
2022-12-15T02:11:57.699Z,51.72
2022-12-15T02:14:44.591Z,51.92
2022-12-15T02:17:40.949Z,51.60
2022-12-15T02:20:33.224Z,50.55
2022-12-15T02:23:34.401Z,48.88
2022-12-15T02:26:20.289Z,51.00
2022-12-15T02:29:06.118Z,50.22
2022-12-15T02:31:49.986Z,51.15
2022-12-15T02:34:23.632Z,50.42
2022-12-15T02:36:56.745Z,46.30
2022-12-15T02:39:24.092Z,48.22
2022-12-15T02:41:52.985Z,47.85
2022-12-15T02:44:43.560Z,45.90
2022-12-15T02:47:34.139Z,48.83
2022-12-15T02:50:28.338Z,51.90
2022-12-15T02:53:38.464Z,46.92
2022-12-15T02:56:19.523Z,46.88
2022-12-15T02:58:57.750Z,46.08
2022-12-15T03:01:31.068Z,44.25
2022-12-15T03:04:01.930Z,43.30
2022-12-15T03:06:29.275Z,43.45
2022-12-15T03:09:14.696Z,44.03
2022-12-15T03:11:41.700Z,46.13
2022-12-15T03:14:08.632Z,45.95
2022-12-15T03:16:35.599Z,47.47
2022-12-15T03:19:02.512Z,48.17
2022-12-15T03:21:29.461Z,47.85
2022-12-15T03:23:56.485Z,48.90
2022-12-15T03:26:23.508Z,47.22
2022-12-15T03:28:50.458Z,48.08
2022-12-15T03:31:17.583Z,47.22
2022-12-15T03:33:44.564Z,47.45
2022-12-15T03:36:11.513Z,46.67
2022-12-15T03:38:38.447Z,47.35
2022-12-15T03:41:05.458Z,46.15
2022-12-15T03:43:32.674Z,44.75
2022-12-15T03:46:00.405Z,46.08
2022-12-15T03:48:27.731Z,44.20
2022-12-15T03:50:55.218Z,44.95
2022-12-15T03:53:22.227Z,47.58
2022-12-15T03:55:49.452Z,45.28
2022-12-15T03:58:16.374Z,43.60
2022-12-15T04:00:43.432Z,43.63
2022-12-15T04:03:11.512Z,42.72
2022-12-15T04:05:39.156Z,41.88
2022-12-15T04:08:06.198Z,43.33
2022-12-15T04:10:35.306Z,45.53
2022-12-15T04:13:11.105Z,43.85
2022-12-15T04:15:39.475Z,44.70
2022-12-15T04:18:12.274Z,43.42
2022-12-15T04:20:40.304Z,44.85
2022-12-15T04:23:07.964Z,43.67
2022-12-15T04:25:54.582Z,43.30
2022-12-15T04:28:40.528Z,43.97
2022-12-15T04:31:28.921Z,42.45
2022-12-15T04:34:22.489Z,44.38
2022-12-15T04:37:11.409Z,42.72
2022-12-15T04:40:01.189Z,42.90
2022-12-15T04:42:48.445Z,44.63
2022-12-15T04:45:37.733Z,43.05
2022-12-15T04:48:23.438Z,46.17
2022-12-15T04:51:09.155Z,51.55
2022-12-15T04:53:54.536Z,56.45
2022-12-15T04:56:40.140Z,55.77
2022-12-15T04:59:25.495Z,50.85
2022-12-15T05:02:11.554Z,47.05
2022-12-15T05:04:57.084Z,44.38
2022-12-15T05:07:44.069Z,41.67
2022-12-15T05:10:30.217Z,41.00
2022-12-15T05:13:25.900Z,39.58
2022-12-15T05:16:11.560Z,41.83
2022-12-15T05:18:57.309Z,41.95
2022-12-15T05:21:42.785Z,42.40
2022-12-15T05:24:28.575Z,43.20
2022-12-15T05:27:14.110Z,42.58
2022-12-15T05:29:59.487Z,41.90
2022-12-15T05:32:26.515Z,43.73
2022-12-15T05:34:53.457Z,44.38
2022-12-15T05:37:20.412Z,44.28
2022-12-15T05:39:47.340Z,39.38
2022-12-15T05:42:14.380Z,43.25
2022-12-15T05:44:41.470Z,42.78
2022-12-15T05:47:09.226Z,41.85
2022-12-15T05:49:36.168Z,42.75
2022-12-15T05:52:03.725Z,42.13
2022-12-15T05:54:30.693Z,43.78
2022-12-15T05:56:57.725Z,41.22
2022-12-15T05:59:24.772Z,42.28
2022-12-15T06:01:51.826Z,43.42
2022-12-15T06:04:19.610Z,41.20
2022-12-15T06:06:46.753Z,40.70
2022-12-15T06:09:13.829Z,42.15
2022-12-15T06:11:41.161Z,41.30
2022-12-15T06:14:08.670Z,40.50
2022-12-15T06:16:42.540Z,39.92
2022-12-15T06:19:13.463Z,41.78
2022-12-15T06:21:40.471Z,39.33
2022-12-15T06:24:07.917Z,39.72
2022-12-15T06:26:37.412Z,41.92
2022-12-15T06:29:07.651Z,39.58
2022-12-15T06:31:35.811Z,40.38
2022-12-15T06:34:12.457Z,39.67
2022-12-15T06:36:40.093Z,40.35
2022-12-15T06:39:09.739Z,40.33
2022-12-15T06:41:37.248Z,41.45
2022-12-15T06:44:05.327Z,42.35
2022-12-15T06:46:33.828Z,40.13
2022-12-15T06:49:01.095Z,38.75
2022-12-15T06:51:28.605Z,35.60
2022-12-15T06:53:56.367Z,35.45
2022-12-15T06:56:34.458Z,36.50
2022-12-15T06:59:06.212Z,36.42
2022-12-15T07:01:34.179Z,33.78
2022-12-15T07:04:02.990Z,33.60
2022-12-15T07:06:36.673Z,33.38
2022-12-15T07:09:07.402Z,32.83
2022-12-15T07:11:34.607Z,34.20
2022-12-15T07:14:01.639Z,32.47
2022-12-15T07:16:28.828Z,33.88
2022-12-15T07:18:55.852Z,33.20
2022-12-15T07:21:22.825Z,32.65
2022-12-15T07:23:55.293Z,32.55
2022-12-15T07:26:24.091Z,30.15
2022-12-15T07:28:51.362Z,32.28
2022-12-15T07:31:18.557Z,34.47
2022-12-15T07:33:45.723Z,30.75
2022-12-15T07:36:13.242Z,32.33
2022-12-15T07:38:40.345Z,31.98
2022-12-15T07:41:09.442Z,31.20
2022-12-15T07:43:37.425Z,31.13
2022-12-15T07:46:05.653Z,30.27
2022-12-15T07:48:33.560Z,31.05
2022-12-15T07:51:10.946Z,29.65
2022-12-15T07:53:40.017Z,28.30
2022-12-15T07:56:09.397Z,26.20
2022-12-15T07:58:38.165Z,27.17
2022-12-15T08:01:07.784Z,25.25
2022-12-15T08:03:36.348Z,25.55
2022-12-15T08:06:10.239Z,26.33
2022-12-15T08:08:37.934Z,24.60
2022-12-15T08:11:10.015Z,23.95
2022-12-15T08:16:26.033Z,23.17
2022-12-15T08:18:53.788Z,23.50
2022-12-15T08:21:20.893Z,20.73
2022-12-15T08:23:48.097Z,21.63
2022-12-15T08:26:17.794Z,19.05
2022-12-15T08:28:44.972Z,18.00
2022-12-15T08:31:18.507Z,19.30
2022-12-15T08:33:46.870Z,18.50
2022-12-15T08:36:16.871Z,18.38
2022-12-15T08:38:45.524Z,17.60
2022-12-15T08:41:32.238Z,17.60
2022-12-15T08:44:01.279Z,18.50
2022-12-15T08:46:31.565Z,16.88
2022-12-15T08:48:58.741Z,17.33
2022-12-15T08:51:28.594Z,17.77
2022-12-15T08:53:56.481Z,16.90
2022-12-15T08:56:25.337Z,16.70
2022-12-15T08:58:57.542Z,17.17
2022-12-15T09:01:26.998Z,15.30
2022-12-15T09:03:55.848Z,16.33
2022-12-15T09:06:24.246Z,15.30
2022-12-15T09:08:54.494Z,14.52
2022-12-15T09:11:21.566Z,13.77
2022-12-15T09:13:48.489Z,15.55
2022-12-15T09:16:17.715Z,14.82
2022-12-15T09:18:48.691Z,14.73
2022-12-15T09:21:16.984Z,14.85
2022-12-15T09:23:47.701Z,16.20
2022-12-15T09:26:15.877Z,16.83
2022-12-15T09:28:43.781Z,16.38
2022-12-15T09:31:16.354Z,16.65
2022-12-15T09:33:44.965Z,16.45
2022-12-15T09:36:13.314Z,15.15
2022-12-15T09:38:41.949Z,16.30
2022-12-15T09:41:17.556Z,14.63
2022-12-15T09:44:04.233Z,14.90
2022-12-15T09:46:36.482Z,14.32
2022-12-15T09:49:11.320Z,14.85
2022-12-15T09:51:54.977Z,14.88
2022-12-15T09:54:25.012Z,14.40
2022-12-15T09:56:56.825Z,14.75
2022-12-15T10:00:01.819Z,14.88
2022-12-15T10:02:51.109Z,13.73
2022-12-15T10:08:13.718Z,13.82
2022-12-15T10:11:01.758Z,16.20
2022-12-15T10:13:44.680Z,14.60
2022-12-15T10:16:36.136Z,14.88
2022-12-15T10:19:21.002Z,13.60
2022-12-15T10:21:50.632Z,12.75
2022-12-15T10:24:44.494Z,15.05
2022-12-15T10:27:14.594Z,14.38
2022-12-15T10:29:45.444Z,14.63
2022-12-15T10:32:20.520Z,14.05
2022-12-15T10:34:47.705Z,14.50
2022-12-15T10:37:19.073Z,15.23
2022-12-15T10:39:50.268Z,15.43
2022-12-15T10:42:27.236Z,15.75
2022-12-15T10:44:57.467Z,16.27
2022-12-15T10:47:31.261Z,16.20
2022-12-15T10:50:25.122Z,16.65
2022-12-15T10:52:52.486Z,17.60
2022-12-15T10:55:36.014Z,16.52
2022-12-15T10:58:13.919Z,15.63
2022-12-15T11:00:40.915Z,15.60
2022-12-15T11:03:24.791Z,15.63
2022-12-15T11:05:53.882Z,16.35
2022-12-15T11:08:23.144Z,16.13
2022-12-15T11:11:12.625Z,15.60
2022-12-15T11:13:40.496Z,17.05
2022-12-15T11:16:18.681Z,15.65
2022-12-15T11:19:18.707Z,17.30
2022-12-15T11:21:51.826Z,17.00
2022-12-15T11:24:27.851Z,19.05
2022-12-15T11:27:44.030Z,16.75
2022-12-15T11:30:35.080Z,17.80
2022-12-15T11:33:03.131Z,19.13
2022-12-15T11:35:39.004Z,17.15
2022-12-15T11:38:21.073Z,18.45
2022-12-15T11:40:50.619Z,17.88
2022-12-15T11:43:33.835Z,18.30
2022-12-15T11:46:18.066Z,19.27
2022-12-15T11:49:04.560Z,18.35
2022-12-15T11:51:51.838Z,18.92
2022-12-15T11:54:26.556Z,17.95
2022-12-15T11:57:02.958Z,19.65
2022-12-15T12:00:02.909Z,17.23
2022-12-15T12:02:55.593Z,16.90
2022-12-15T12:05:46.753Z,18.15
2022-12-15T12:08:19.626Z,18.33
2022-12-15T12:11:03.145Z,18.45
2022-12-15T12:13:54.908Z,18.10
2022-12-15T12:16:46.712Z,17.80
2022-12-15T12:19:39.992Z,18.88
2022-12-15T12:22:19.284Z,17.77
2022-12-15T12:25:01.142Z,17.00
2022-12-15T12:27:55.036Z,17.77
2022-12-15T12:30:26.284Z,18.48
2022-12-15T12:32:56.632Z,17.45
2022-12-15T12:35:51.194Z,17.23
2022-12-15T12:38:26.278Z,17.77
2022-12-15T12:41:02.692Z,17.23
2022-12-15T12:43:35.171Z,17.58
2022-12-15T12:46:13.948Z,18.38
2022-12-15T12:48:48.684Z,17.90
2022-12-15T12:51:52.404Z,17.10
2022-12-15T12:54:34.726Z,17.65
2022-12-15T12:57:14.224Z,18.30
2022-12-15T12:59:43.985Z,17.60
2022-12-15T13:02:22.161Z,18.08
2022-12-15T13:05:04.392Z,17.50
2022-12-15T13:07:40.963Z,18.95
2022-12-15T13:10:08.098Z,19.73
2022-12-15T13:12:51.653Z,18.58
2022-12-15T13:15:42.421Z,20.20
2022-12-15T13:18:19.470Z,19.58
2022-12-15T13:20:50.765Z,20.00
2022-12-15T13:23:24.230Z,21.02
2022-12-15T13:25:57.177Z,22.45
2022-12-15T13:28:36.565Z,21.10
2022-12-15T13:31:14.791Z,21.70
2022-12-15T13:34:01.471Z,21.98
2022-12-15T13:36:37.526Z,22.10
2022-12-15T13:39:27.734Z,22.85
2022-12-15T13:44:48.649Z,24.50
2022-12-15T13:47:22.916Z,24.08
2022-12-15T13:50:08.924Z,22.90
2022-12-15T13:55:38.298Z,24.20
2022-12-15T13:58:14.475Z,24.05
2022-12-15T14:00:50.342Z,24.80
2022-12-15T14:03:18.141Z,24.42
2022-12-15T14:05:59.243Z,25.52
2022-12-15T14:08:29.770Z,26.00
2022-12-15T14:11:00.055Z,25.20
2022-12-15T14:13:30.785Z,25.00
2022-12-15T14:16:17.705Z,25.33
2022-12-15T14:18:45.778Z,25.85
2022-12-15T14:21:23.394Z,22.02
2022-12-15T14:26:37.549Z,22.08
2022-12-15T14:29:06.218Z,22.30
2022-12-15T14:31:33.661Z,23.67
2022-12-15T14:34:28.833Z,24.35
2022-12-15T14:36:59.247Z,24.50
2022-12-15T14:39:43.183Z,22.92
2022-12-15T14:42:23.260Z,21.77
2022-12-15T14:44:53.776Z,22.80
2022-12-15T14:47:31.783Z,22.70
2022-12-15T14:50:01.652Z,22.30
2022-12-15T14:52:33.885Z,22.50
2022-12-15T14:55:21.089Z,23.50
2022-12-15T14:57:48.646Z,23.00
2022-12-15T15:00:26.441Z,23.10
2022-12-15T15:03:06.435Z,14.75
2022-12-15T15:03:18.176Z,24.38
2022-12-15T15:05:59.480Z,25.40
2022-12-15T15:08:33.293Z,24.52
2022-12-15T15:11:23.445Z,34.53
2022-12-15T15:13:56.065Z,26.38
2022-12-15T15:16:23.684Z,23.05
2022-12-15T15:18:57.048Z,23.00
2022-12-15T15:21:29.714Z,23.55
2022-12-15T15:24:11.791Z,22.45
2022-12-15T15:26:41.343Z,22.83
2022-12-15T15:29:34.171Z,22.52
2022-12-15T15:32:19.100Z,22.77
2022-12-15T15:34:49.660Z,22.90
2022-12-15T15:37:20.496Z,24.15
2022-12-15T15:39:52.626Z,22.90
2022-12-15T15:42:19.766Z,22.50
2022-12-15T15:44:47.052Z,24.27
2022-12-15T15:47:23.685Z,23.77
2022-12-15T15:49:52.242Z,23.88
2022-12-15T15:52:19.379Z,22.27
2022-12-15T15:54:46.921Z,22.05
2022-12-15T15:57:15.481Z,23.20
2022-12-15T15:59:44.158Z,20.73
2022-12-15T16:02:13.414Z,21.17
2022-12-15T16:04:44.458Z,21.27
2022-12-15T16:07:24.310Z,22.02
2022-12-15T16:09:52.857Z,22.38
2022-12-15T16:12:35.586Z,21.05
2022-12-15T16:15:02.653Z,21.48
2022-12-15T16:17:29.730Z,21.38
2022-12-15T16:19:56.712Z,20.17
2022-12-15T16:22:24.361Z,21.45
2022-12-15T16:24:51.412Z,21.13
2022-12-15T16:27:18.605Z,20.50
2022-12-15T16:29:45.673Z,21.40
2022-12-15T16:32:13.352Z,21.13
2022-12-15T16:34:41.985Z,19.52
2022-12-15T16:37:26.182Z,19.33
2022-12-15T16:39:53.284Z,20.63
2022-12-15T16:42:20.395Z,19.98
2022-12-15T16:44:47.495Z,23.23
2022-12-15T16:47:14.597Z,20.98
2022-12-15T16:49:41.766Z,20.38
2022-12-15T16:52:20.185Z,22.17
2022-12-15T16:54:50.782Z,24.38
2022-12-15T16:57:18.556Z,23.27
2022-12-15T16:59:45.937Z,25.55
2022-12-15T17:02:22.988Z,24.70
2022-12-15T17:04:50.388Z,23.58
2022-12-15T17:07:20.396Z,24.40
2022-12-15T17:09:50.107Z,23.63
2022-12-15T17:12:18.134Z,25.27
2022-12-15T17:14:45.173Z,25.63
2022-12-15T17:17:16.882Z,25.67
2022-12-15T17:20:11.867Z,25.95
2022-12-15T17:22:32.855Z,22.95
2022-12-15T17:25:00.049Z,24.55
2022-12-15T17:27:29.336Z,29.08
2022-12-15T17:29:59.131Z,25.05
2022-12-15T17:32:26.791Z,25.98
2022-12-15T17:34:53.863Z,25.77
2022-12-15T17:37:20.985Z,24.95
2022-12-15T17:39:51.281Z,24.92
2022-12-15T17:42:20.362Z,23.52
2022-12-15T17:44:48.820Z,24.25
2022-12-15T17:47:16.588Z,24.52
2022-12-15T17:49:43.835Z,22.75
2022-12-15T17:52:34.708Z,21.48
2022-12-15T17:55:03.235Z,24.60
2022-12-15T17:57:31.901Z,22.33
2022-12-15T18:00:02.032Z,23.85
2022-12-15T18:02:33.055Z,24.00
2022-12-15T18:05:00.353Z,22.55
2022-12-15T18:07:27.424Z,22.55
2022-12-15T18:09:54.885Z,24.10
2022-12-15T18:12:24.864Z,23.98
2022-12-15T18:14:53.170Z,24.13
2022-12-15T18:17:20.372Z,22.92
2022-12-15T18:19:47.380Z,21.92
2022-12-15T18:22:20.469Z,22.00
2022-12-15T18:24:48.300Z,21.55
2022-12-15T18:27:27.904Z,23.00
2022-12-15T18:29:56.585Z,23.05
2022-12-15T18:32:26.973Z,22.92
2022-12-15T18:34:54.877Z,22.10
2022-12-15T18:37:24.661Z,22.42
2022-12-15T18:39:51.843Z,20.20
2022-12-15T18:42:21.733Z,21.60
2022-12-15T18:44:53.381Z,21.35
2022-12-15T18:47:22.956Z,21.92
2022-12-15T18:49:50.267Z,22.05
2022-12-15T18:52:22.635Z,21.45
2022-12-15T18:54:51.117Z,19.80
2022-12-15T18:57:37.860Z,20.58
2022-12-15T19:00:08.003Z,20.05
2022-12-15T19:02:35.283Z,21.13
2022-12-15T19:05:02.656Z,19.98
2022-12-15T19:07:29.867Z,21.58
2022-12-15T19:09:56.966Z,19.20
2022-12-15T19:12:24.627Z,20.85
2022-12-15T19:14:53.004Z,19.95
2022-12-15T19:17:42.895Z,20.70
2022-12-15T19:20:37.492Z,21.20
2022-12-15T19:23:06.809Z,20.45
2022-12-15T19:25:34.327Z,19.88
2022-12-15T19:28:01.817Z,19.70
2022-12-15T19:30:33.200Z,20.50
2022-12-15T19:33:02.042Z,19.55
2022-12-15T19:35:29.408Z,18.75
2022-12-15T19:37:59.073Z,18.90
2022-12-15T19:40:30.278Z,18.58
2022-12-15T19:42:58.933Z,17.88
2022-12-15T19:45:31.050Z,17.55
2022-12-15T19:47:58.621Z,18.05
2022-12-15T19:50:31.061Z,17.45
2022-12-15T19:53:00.644Z,17.83
2022-12-15T19:55:33.085Z,17.92
2022-12-15T19:58:05.546Z,16.90
2022-12-15T20:00:32.762Z,18.02
2022-12-15T20:02:59.903Z,18.33
2022-12-15T20:05:27.139Z,18.45
2022-12-15T20:07:54.862Z,16.17
2022-12-15T20:10:29.818Z,16.98
2022-12-15T20:13:00.113Z,17.08
2022-12-15T20:15:27.367Z,17.02
2022-12-15T20:17:57.724Z,18.10
2022-12-15T20:20:29.281Z,18.05
2022-12-15T20:22:59.989Z,17.90
2022-12-15T20:25:30.140Z,17.42
2022-12-15T20:27:57.741Z,17.45
2022-12-15T20:30:28.747Z,17.42
2022-12-15T20:32:55.713Z,15.70
2022-12-15T20:35:22.858Z,16.77
2022-12-15T20:37:50.341Z,17.75
2022-12-15T20:40:23.493Z,16.95
2022-12-15T20:42:51.714Z,17.63
2022-12-15T20:45:21.394Z,16.60
2022-12-15T20:47:52.791Z,17.33
2022-12-15T20:50:41.039Z,16.35
2022-12-15T20:53:22.726Z,17.58
2022-12-15T20:55:52.141Z,17.75
2022-12-15T20:58:20.590Z,16.55
2022-12-15T21:00:48.562Z,18.30
2022-12-15T21:03:36.345Z,18.85
2022-12-15T21:06:04.208Z,17.00
2022-12-15T21:08:32.508Z,17.23
2022-12-15T21:11:04.869Z,16.48
2022-12-15T21:13:35.410Z,17.27
2022-12-15T21:16:02.629Z,18.35
2022-12-15T21:19:10.722Z,15.90
2022-12-15T21:21:18.853Z,16.83
2022-12-15T21:23:46.353Z,16.38
2022-12-15T21:26:15.646Z,16.38
2022-12-15T21:28:42.615Z,15.68
2022-12-15T21:31:10.099Z,15.98
2022-12-15T21:33:37.139Z,16.38
2022-12-15T21:36:04.212Z,16.88
2022-12-15T21:38:36.304Z,15.30
2022-12-15T21:41:07.441Z,16.27
2022-12-15T21:43:35.999Z,15.38
2022-12-15T21:46:12.747Z,15.88
2022-12-15T21:48:58.170Z,15.38
2022-12-15T21:51:25.672Z,15.57
2022-12-15T21:53:52.672Z,15.20
2022-12-15T21:56:21.419Z,14.77
2022-12-15T21:58:52.779Z,14.57
2022-12-15T22:01:29.233Z,15.05
2022-12-15T22:03:58.542Z,14.02
2022-12-15T22:06:28.397Z,13.70
2022-12-15T22:08:58.576Z,14.80
2022-12-15T22:11:26.816Z,14.55
2022-12-15T22:13:55.531Z,14.32
2022-12-15T22:16:23.077Z,14.68
2022-12-15T22:18:58.323Z,15.23
2022-12-15T22:21:25.668Z,13.98
2022-12-15T22:23:52.842Z,13.68
2022-12-15T22:26:26.929Z,14.35
2022-12-15T22:28:56.252Z,14.43
2022-12-15T22:31:23.446Z,13.02
2022-12-15T22:33:51.000Z,14.15
2022-12-15T22:36:18.056Z,14.88
2022-12-15T22:38:46.946Z,14.82
2022-12-15T22:41:22.547Z,15.60
2022-12-15T22:43:52.444Z,14.77
2022-12-15T22:46:21.827Z,15.65
2022-12-15T22:48:49.488Z,13.32
2022-12-15T22:51:18.614Z,14.57
2022-12-15T22:53:48.684Z,14.50
2022-12-15T22:56:28.709Z,13.75
2022-12-15T22:59:00.748Z,14.30
2022-12-15T23:01:28.596Z,14.05
2022-12-15T23:03:56.056Z,14.40
2022-12-15T23:06:23.690Z,13.45
2022-12-15T23:08:55.795Z,13.45
2022-12-15T23:11:39.033Z,13.73
2022-12-15T23:14:15.384Z,14.95
2022-12-15T23:16:44.111Z,14.07
2022-12-15T23:19:23.707Z,13.57
2022-12-15T23:21:51.603Z,12.57
2022-12-15T23:24:18.923Z,13.45
2022-12-15T23:26:46.020Z,13.18
2022-12-15T23:29:13.038Z,12.60
2022-12-15T23:31:40.224Z,12.32
2022-12-15T23:34:08.551Z,13.23
2022-12-15T23:36:35.708Z,13.45
2022-12-15T23:39:02.735Z,11.73
2022-12-15T23:41:29.824Z,12.77
2022-12-15T23:43:56.817Z,12.63
2022-12-15T23:46:23.869Z,12.45
2022-12-15T23:48:51.935Z,11.45
2022-12-15T23:51:20.699Z,10.77
2022-12-15T23:53:48.277Z,10.57
2022-12-15T23:56:20.495Z,11.98
2022-12-15T23:58:49.213Z,12.07
